Terminal Aerodrome Forecast
Issued by NWS

Home | Current Version | Previous Version | Text Only | Print | Product List | Glossary On
Versions: 1 2 3 4 5 6 7 8 9 10 11 12 13 14 15 16 17 18
000
FTUS43 KGRR 020700 AAA
TAFAZO
TAF AMD
KAZO 020727Z 0207/0306 00000KT 1SM BR SKC
      TEMPO 0208/0212 1/4SM FG
     FM021200 00000KT 3SM BR SKC
     FM021400 32003KT P6SM SKC
     FM021800 32006KT P6SM VCTS BKN040CB
     FM030000 32003KT P6SM SCT060=

USA.gov is the U.S. government's official web portal to all federal, state and local government web resources and services.